Flight Track Log - Related Links

Times and Time Zones

All times are in EDT time to prevent confusion due to time zone crossing. See the RPA3457 flight status page for this flight to view local times or setup timezone preferences in your user account.

Time Position Orientation Groundspeed Altitude Reporting Facility
EDT Latitude Longitude Course Direction KTS MPH feet Rate Location/Type
Mon 08:22:00 AM 44.1650 -73.2632 195° South  Level FlightAware Approximate
Mon 08:23:00 AM 44.0638 -73.3009 194° South  Level FlightAware Approximate
Mon 08:23:27 AM 44.2842 -73.1217 198° South 276 318 9,400  Level Boston Center
Mon 08:24:00 AM 43.9620 -73.3349 194° South  Level FlightAware Approximate
Mon 08:24:27 AM 44.2050 -73.1553 197° South 281 323 11,000  Level Boston Center
Mon 08:25:00 AM 43.8606 -73.3711 195° South  Level FlightAware Approximate
Mon 08:25:27 AM 44.1214 -73.1919 197° South 306 352 14,200  Level Boston Center
Mon 08:26:00 AM 43.7595 -73.4090 195° South  Level FlightAware Approximate
Mon 08:26:27 AM 44.0314 -73.2342 199° South 317 365 17,600  Level Boston Center
Mon 08:27:00 AM 43.6584 -73.4469 195° South  Level FlightAware Approximate
Mon 08:27:27 AM 43.9417 -73.2733 197° South 324 373 19,600  Level Boston Center
Mon 08:28:00 AM 43.5588 -73.4915 198° South  Level FlightAware Approximate
Mon 08:28:27 AM 43.8517 -73.3153 199° South 342 394 22,000  Level Boston Center
Mon 08:29:27 AM 43.7556 -73.3569 197° South 357 411 24,200 2,150 Climbing Boston Center
Mon 08:30:27 AM 43.6614 -73.3986 198° South 363 418 26,300 1,900 Climbing Boston Center
Mon 08:31:27 AM 43.5653 -73.4431 199° South 368 423 28,000 850 Climbing Boston Center
Mon 08:32:27 AM 43.4689 -73.4842 197° South 368 423 28,000  Level Boston Center
Mon 08:33:27 AM 43.3769 -73.5283 199° South 363 418 28,000  Level Boston Center
Mon 08:34:27 AM 43.2847 -73.5667 197° South 363 418 28,000  Level Boston Center
Mon 08:35:27 AM 43.1906 -73.6078 198° South 363 418 28,000  Level Boston Center
Mon 08:36:27 AM 43.1047 -73.6458 198° South 368 423 28,000  Level Boston Center
Mon 08:37:27 AM 43.0083 -73.6894 198° South 368 423 28,000  Level Boston Center
Mon 08:38:27 AM 42.9078 -73.7328 198° South 374 430 28,000  Level Boston Center
Mon 08:39:27 AM 42.8072 -73.7786 198° South 374 430 28,000  Level Boston Center
Mon 08:40:27 AM 42.7069 -73.8047 191° South 374 430 28,000  Level Boston Center
Mon 08:41:27 AM 42.5947 -73.7853 173° South 374 430 28,000  Level Boston Center
Mon 08:42:27 AM 42.4886 -73.7689 174° South 374 430 28,000  Level Boston Center
Mon 08:43:27 AM 42.3825 -73.7528 174° South 385 443 28,000  Level Boston Center
Mon 08:44:27 AM 42.2764 -73.7364 173° South 385 443 28,000  Level Boston Center
Mon 08:45:27 AM 42.1681 -73.7203 174° South 385 443 28,000  Level Boston Center
Mon 08:46:27 AM 42.0617 -73.7208 180° South 385 443 28,000  Level Boston Center
Mon 08:47:27 AM 41.9578 -73.7075 175° South 380 437 28,000  Level Boston Center
Mon 08:48:27 AM 41.8517 -73.6858 171° South 386 444 28,000  Level Boston Center
Mon 08:49:27 AM 41.7478 -73.6672 172° South 386 444 28,000  Level Boston Center
Mon 08:50:27 AM 41.6417 -73.6511 174° South 386 444 28,000  Level Boston Center
Mon 08:51:27 AM 41.5514 -73.7022 203° Southwest 345 397 28,000 100 Level Boston Center
Mon 08:52:27 AM 41.4714 -73.7783 215° Southwest 351 404 28,200 209 Climbing Boston Center
Mon 08:52:53 AM 41.4478 -73.7964 210° Southwest 358 412 28,300 571 Climbing New York Center
Mon 08:53:51 AM 41.3581 -73.8806 215° Southwest 371 427 29,000 600 Climbing New York Center
Mon 08:54:53 AM 41.2875 -73.9492 216° Southwest 371 427 29,500 492 Climbing New York Center
Mon 08:55:53 AM 41.2000 -74.0306 215° Southwest 358 412 30,000 254 Climbing New York Center
Mon 08:56:51 AM 41.1186 -74.1036 214° Southwest 358 412 30,000  Level New York Center
Mon 08:57:52 AM 41.0397 -74.1742 214° Southwest 353 406 30,000 -50 Level New York Center
Mon 08:58:52 AM 40.9669 -74.2392 214° Southwest 353 406 29,900 -942 Descending New York Center
Mon 08:59:53 AM 40.8875 -74.3147 216° Southwest 358 412 28,100 -1,736 Descending New York Center
Mon 09:00:53 AM 40.8403 -74.4300 242° Southwest 358 412 26,400 -1,050 Descending New York Center
Mon 09:01:53 AM 40.7969 -74.5539 245° Southwest 363 418 26,000 -200 Descending New York Center
Mon 09:02:53 AM 40.7253 -74.6431 223° Southwest 363 418 26,000 -100 Level New York Center
Mon 09:03:53 AM 40.6378 -74.7064 209° Southwest 354 407 25,800 -1,424 Descending New York Center
Mon 09:04:51 AM 40.5517 -74.7889 216° Southwest 360 414 23,200 -1,900 Descending New York Center
Mon 09:05:53 AM 40.4858 -74.8806 227° Southwest 354 407 22,000 -600 Descending New York Center
Mon 09:06:51 AM 40.4222 -74.9722 228° Southwest 354 407 22,000  Level New York Center
Mon 09:07:52 AM 40.3586 -75.0581 226° Southwest 349 402 22,000  Level New York Center
Mon 09:08:53 AM 40.2992 -75.1442 228° Southwest 336 387 22,000  Level New York Center
Mon 09:09:51 AM 40.2375 -75.2328 228° Southwest 336 387 22,000  Level New York Center
Mon 09:10:53 AM 40.1761 -75.3158 226° Southwest 331 381 22,000  Level New York Center
Mon 09:11:53 AM 40.1144 -75.4014 227° Southwest 331 381 22,000  Level New York Center
Mon 09:12:53 AM 40.0525 -75.4894 227° Southwest 331 381 22,000  Level New York Center
Mon 09:13:53 AM 39.9928 -75.5747 228° Southwest 331 381 22,000  Level New York Center
Mon 09:14:53 AM 39.9308 -75.6600 227° Southwest 331 381 22,000  Level New York Center
Mon 09:15:51 AM 39.8789 -75.7536 234° Southwest 331 381 22,000  Level New York Center
Mon 09:16:53 AM 39.8269 -75.8528 236° Southwest 336 387 22,000 -197 Level New York Center
Mon 09:17:53 AM 39.7744 -75.9517 235° Southwest 331 381 21,600 -1,150 Descending New York Center
Mon 09:18:53 AM 39.7244 -76.0450 235° Southwest 331 381 19,700 -1,700 Descending New York Center
Mon 09:19:53 AM 39.6814 -76.1228 234° Southwest 320 368 18,200 -1,462 Descending New York Center
Mon 09:20:52 AM 39.6289 -76.2239 236° Southwest 320 368 16,800 -1,613 Descending New York Center
Mon 09:21:26 AM 39.6000 -76.2833 238° Southwest 298 343 15,700 -1,977 Descending Potomac TRACON
Mon 09:22:20 AM 39.5333 -76.3333 210° Southwest 290 334 13,900 -1,842 Descending Potomac TRACON
Mon 09:23:20 AM 39.4667 -76.4000 218° Southwest 288 331 12,200 -950 Descending Potomac TRACON
Mon 09:24:20 AM 39.4000 -76.4500 210° Southwest 285 328 12,000 -105 Descending Potomac TRACON
Mon 09:25:14 AM 39.3500 -76.5000 218° Southwest 286 329 12,000  Level Potomac TRACON
Mon 09:26:14 AM 39.2833 -76.5667 218° Southwest 285 328 12,000 -450 Level Potomac TRACON
Mon 09:27:14 AM 39.2167 -76.6167 210° Southwest 278 320 11,100 -1,043 Descending Potomac TRACON
Mon 09:28:09 AM 39.1667 -76.6667 218° Southwest 276 318 10,000 -574 Descending Potomac TRACON
Mon 09:29:09 AM 39.1000 -76.7333 218° Southwest 277 319 10,000 -526 Level Potomac TRACON
Mon 09:30:03 AM 39.0500 -76.8000 226° Southwest 271 312 9,000 -1,611 Descending Potomac TRACON
Mon 09:30:57 AM 39.0000 -76.8667 226° Southwest 275 316 7,100 -1,565 Descending Potomac TRACON
Mon 09:31:58 AM 38.9500 -76.9167 218° Southwest 256 295 6,000 -545 Descending Potomac TRACON
Mon 09:32:58 AM 38.8833 -76.9500 201° Southwest 223 257 6,000 -50 Level Potomac TRACON
Mon 09:33:58 AM 38.8333 -76.9500 180° South 194 223 5,900 -700 Descending Potomac TRACON
Mon 09:34:58 AM 38.7833 -76.9500 180° South 179 206 4,600 -1,300 Descending Potomac TRACON
Mon 09:35:58 AM 38.7333 -76.9333 165° South 169 194 3,300 -842 Descending Potomac TRACON
Mon 09:36:52 AM 38.7000 -76.9333 180° South 171 197 3,000 -211 Descending Potomac TRACON
Mon 09:37:52 AM 38.6667 -76.9833 230° Southwest 192 221 2,900 -522 Descending Potomac TRACON
Mon 09:38:47 AM 38.7000 -77.0167 322° Northwest 178 205 2,000 -678 Descending Potomac TRACON
Mon 09:39:47 AM 38.7333 -77.0333 339° North 166 191 1,600 -350 Descending Potomac TRACON
Mon 09:40:47 AM 38.7833 -77.0333 360° North 165 190 1,300 -450 Descending Potomac TRACON
Mon 09:41:47 AM 38.8333 -77.0167 15° North 131 151 700 -600 Descending Potomac TRACON

Login

Don't have an account? Register now (free) for customized features, flight alerts, and more!